Time;durP1;ratioP1;P1;durP2;ratioP2;P2;SDS_P1;SDS_P2;PMS_P1;PMS_P2;Temp;Humidity;BMP_temperature;BMP_pressure;BME280_temperature;BME280_humidity;BME280_pressure;Samples;Min_cycle;Max_cycle;Signal;HPM_P1;HPM_P2
2022/06/27 00:00:07;;;;;;;6.17;4.80;;;;;;;;;;5052856;28;20548;-68
2022/06/27 00:02:33;;;;;;;7.80;5.53;;;;;;;;;;5053207;28;20190;-67
2022/06/27 00:04:59;;;;;;;11.47;5.73;;;;;;;;;;5034883;28;20217;-68
2022/06/27 00:07:25;;;;;;;5.83;5.33;;;;;;;;;;5053008;28;20224;-68
2022/06/27 00:09:51;;;;;;;5.30;4.80;;;;;;;;;;5054275;28;20179;-69
2022/06/27 00:12:17;;;;;;;8.37;6.03;;;;;;;;;;5056316;28;20209;-69
2022/06/27 00:14:43;;;;;;;7.07;5.03;;;;;;;;;;5038412;28;20238;-68
2022/06/27 00:17:09;;;;;;;13.93;5.97;;;;;;;;;;5038679;28;20175;-68
2022/06/27 00:19:35;;;;;;;6.07;5.47;;;;;;;;;;5056465;28;20185;-68
2022/06/27 00:22:01;;;;;;;8.10;5.67;;;;;;;;;;5056329;28;20698;-68
2022/06/27 00:24:27;;;;;;;5.53;5.03;;;;;;;;;;5056006;28;20206;-68
2022/06/27 00:26:53;;;;;;;9.97;5.63;;;;;;;;;;5056624;28;20661;-68
2022/06/27 00:29:19;;;;;;;6.67;5.73;;;;;;;;;;5038268;28;20556;-68
2022/06/27 00:31:45;;;;;;;6.83;5.73;;;;;;;;;;5056068;28;20578;-68
2022/06/27 00:34:11;;;;;;;7.17;5.97;;;;;;;;;;5038196;28;20198;-68
2022/06/27 00:36:36;;;;;;;6.47;5.87;;;;;;;;;;5037967;28;20247;-67
2022/06/27 00:39:02;;;;;;;6.10;5.43;;;;;;;;;;5037840;28;20178;-67
2022/06/27 00:41:29;;;;;;;8.43;5.50;;;;;;;;;;5055996;28;20324;-67
2022/06/27 00:43:55;;;;;;;8.73;5.77;;;;;;;;;;5055741;28;20576;-67
2022/06/27 00:46:21;;;;;;;6.60;6.00;;;;;;;;;;5055561;28;20189;-68
2022/06/27 00:48:47;;;;;;;6.77;6.13;;;;;;;;;;5055701;28;20262;-67
2022/06/27 00:51:13;;;;;;;6.70;5.40;;;;;;;;;;5055682;28;20214;-68
2022/06/27 00:53:39;;;;;;;6.23;5.63;;;;;;;;;;5037744;28;20198;-68
2022/06/27 00:56:06;;;;;;;6.93;5.70;;;;;;;;;;5037704;28;20186;-68
2022/06/27 00:58:32;;;;;;;7.90;6.60;;;;;;;;;;5055964;28;20228;-68
2022/06/27 01:00:58;;;;;;;8.73;5.80;;;;;;;;;;5055606;28;20178;-68
2022/06/27 01:03:24;;;;;;;12.73;6.70;;;;;;;;;;5037239;28;20222;-68
2022/06/27 01:05:53;;;;;;;7.10;5.97;;;;;;;;;;5037695;28;20183;-69
2022/06/27 01:08:20;;;;;;;8.67;6.20;;;;;;;;;;5055280;28;20266;-68
2022/06/27 01:10:46;;;;;;;8.43;5.60;;;;;;;;;;5037438;28;20561;-69
2022/06/27 01:13:13;;;;;;;6.50;5.77;;;;;;;;;;5055238;28;20213;-69
2022/06/27 01:15:39;;;;;;;7.43;5.90;;;;;;;;;;5055616;28;20183;-68
2022/06/27 01:18:07;;;;;;;6.87;6.17;;;;;;;;;;5055387;28;20175;-68
2022/06/27 01:20:33;;;;;;;6.87;5.87;;;;;;;;;;5055272;28;20204;-67
2022/06/27 01:22:59;;;;;;;7.80;6.27;;;;;;;;;;5055365;28;20205;-68
2022/06/27 01:25:25;;;;;;;6.30;5.70;;;;;;;;;;5055087;28;20179;-68
2022/06/27 01:27:52;;;;;;;7.57;6.77;;;;;;;;;;5055330;28;20179;-68
2022/06/27 01:30:18;;;;;;;7.13;5.90;;;;;;;;;;5054948;28;20556;-68
2022/06/27 01:32:43;;;;;;;8.50;6.17;;;;;;;;;;5054969;28;20309;-67
2022/06/27 01:35:09;;;;;;;7.83;6.53;;;;;;;;;;5037325;28;20197;-68
2022/06/27 01:37:35;;;;;;;7.57;6.40;;;;;;;;;;5054946;28;20178;-68
2022/06/27 01:40:01;;;;;;;7.63;6.80;;;;;;;;;;5037235;28;20559;-67
2022/06/27 01:42:28;;;;;;;9.97;6.40;;;;;;;;;;5054970;28;20185;-68
2022/06/27 01:44:54;;;;;;;6.13;5.63;;;;;;;;;;5036813;28;20301;-68
2022/06/27 01:47:20;;;;;;;10.20;7.00;;;;;;;;;;5054748;28;20612;-68
2022/06/27 01:49:46;;;;;;;8.00;7.20;;;;;;;;;;5036635;28;20209;-68
2022/06/27 01:52:13;;;;;;;8.50;7.23;;;;;;;;;;5054756;28;20230;-67
2022/06/27 01:54:39;;;;;;;8.90;6.70;;;;;;;;;;5054445;28;20246;-68
2022/06/27 01:57:07;;;;;;;10.50;7.70;;;;;;;;;;5054952;28;20265;-68
2022/06/27 01:59:33;;;;;;;9.00;6.83;;;;;;;;;;5054348;28;20589;-68
2022/06/27 02:01:59;;;;;;;9.13;7.30;;;;;;;;;;5036415;28;20189;-68
2022/06/27 02:04:26;;;;;;;13.97;7.13;;;;;;;;;;5054079;28;20217;-68
2022/06/27 02:06:52;;;;;;;7.57;6.87;;;;;;;;;;5036452;28;20208;-67
2022/06/27 02:09:18;;;;;;;9.93;7.30;;;;;;;;;;5054366;28;20186;-70
2022/06/27 02:11:45;;;;;;;7.90;6.90;;;;;;;;;;5054371;28;20228;-69
2022/06/27 02:14:12;;;;;;;9.97;7.47;;;;;;;;;;5036145;28;20260;-67
2022/06/27 02:16:39;;;;;;;11.00;7.80;;;;;;;;;;5036300;28;20182;-67
2022/06/27 02:19:06;;;;;;;8.73;7.47;;;;;;;;;;5054180;28;20258;-67
2022/06/27 02:21:32;;;;;;;12.37;7.90;;;;;;;;;;5054515;28;20693;-67
2022/06/27 02:23:59;;;;;;;7.80;7.00;;;;;;;;;;5054310;28;20674;-67
2022/06/27 02:26:26;;;;;;;10.20;7.43;;;;;;;;;;5036244;28;20228;-68
2022/06/27 02:28:53;;;;;;;11.07;7.57;;;;;;;;;;5036056;28;20278;-67
2022/06/27 02:31:19;;;;;;;9.20;7.80;;;;;;;;;;5054028;28;20554;-67
2022/06/27 02:33:46;;;;;;;8.73;7.70;;;;;;;;;;5053252;28;20537;-67
2022/06/27 02:36:32;;;;;;;8.63;6.53;;;;;;;;;;5035901;28;20186;-67
2022/06/27 02:38:59;;;;;;;7.33;6.47;;;;;;;;;;5053540;28;20202;-67
2022/06/27 02:41:27;;;;;;;8.00;6.53;;;;;;;;;;5053710;28;20175;-67
2022/06/27 02:43:53;;;;;;;8.60;6.17;;;;;;;;;;5035741;28;20194;-68
2022/06/27 02:46:20;;;;;;;8.70;6.17;;;;;;;;;;5035929;28;20182;-68
2022/06/27 02:48:48;;;;;;;7.23;6.43;;;;;;;;;;5035771;28;20175;-67
2022/06/27 02:51:15;;;;;;;8.27;6.60;;;;;;;;;;5053488;28;20235;-69
2022/06/27 02:53:45;;;;;;;9.50;6.13;;;;;;;;;;5053355;28;20202;-67
2022/06/27 02:56:13;;;;;;;9.77;5.70;;;;;;;;;;5035578;28;20630;-68
2022/06/27 02:58:46;;;;;;;7.10;5.73;;;;;;;;;;5053562;28;20193;-67
2022/06/27 03:01:13;;;;;;;6.10;5.50;;;;;;;;;;5053952;28;20178;-69
2022/06/27 03:03:41;;;;;;;7.10;5.07;;;;;;;;;;5053273;28;20603;-68
2022/06/27 03:06:07;;;;;;;6.63;5.10;;;;;;;;;;5035439;28;20178;-68
2022/06/27 03:11:15;;;;;;;5.50;4.80;;;;;;;;;;5033478;28;20215;-68
2022/06/27 03:13:41;;;;;;;4.90;4.50;;;;;;;;;;5016743;28;20179;-68
2022/06/27 03:16:08;;;;;;;5.03;4.57;;;;;;;;;;5016495;28;20551;-68
2022/06/27 03:18:34;;;;;;;6.00;4.50;;;;;;;;;;5034495;28;20596;-69
2022/06/27 03:21:00;;;;;;;6.97;4.50;;;;;;;;;;5016640;28;20671;-67
2022/06/27 03:23:27;;;;;;;7.60;4.40;;;;;;;;;;5016894;28;20273;-68
2022/06/27 03:25:53;;;;;;;4.40;4.00;;;;;;;;;;5034566;28;20179;-69
2022/06/27 03:28:19;;;;;;;5.07;4.23;;;;;;;;;;5016413;28;20190;-69
2022/06/27 03:30:45;;;;;;;5.23;4.03;;;;;;;;;;5034173;28;20203;-70
2022/06/27 03:33:11;;;;;;;6.87;4.30;;;;;;;;;;5035246;28;20666;-68
2022/06/27 03:35:37;;;;;;;6.27;4.13;;;;;;;;;;5034428;28;20176;-69
2022/06/27 03:38:03;;;;;;;4.47;4.07;;;;;;;;;;5034396;28;20178;-68
2022/06/27 03:40:29;;;;;;;7.37;4.27;;;;;;;;;;5034408;28;20273;-68
2022/06/27 03:42:55;;;;;;;4.73;4.00;;;;;;;;;;5016421;28;20185;-69
2022/06/27 03:45:21;;;;;;;7.57;4.20;;;;;;;;;;5020480;28;20190;-68
2022/06/27 03:47:49;;;;;;;5.57;4.30;;;;;;;;;;5020331;28;20274;-69
2022/06/27 03:50:16;;;;;;;5.40;4.33;;;;;;;;;;5038450;28;20290;-68
2022/06/27 03:52:42;;;;;;;5.10;4.60;;;;;;;;;;5038437;28;20203;-68
2022/06/27 03:55:08;;;;;;;5.70;4.40;;;;;;;;;;5037974;28;20176;-68
2022/06/27 03:57:38;;;;;;;7.03;4.57;;;;;;;;;;5038346;28;20178;-69
2022/06/27 04:00:08;;;;;;;5.43;4.37;;;;;;;;;;5038028;28;20569;-68
2022/06/27 04:02:34;;;;;;;6.07;3.73;;;;;;;;;;5038049;28;20563;-68
2022/06/27 04:05:00;;;;;;;7.37;4.40;;;;;;;;;;5037891;28;20657;-68
2022/06/27 04:07:26;;;;;;;7.43;5.43;;;;;;;;;;5037996;28;20187;-69
2022/06/27 04:09:52;;;;;;;5.37;4.80;;;;;;;;;;5038321;28;20584;-68
2022/06/27 04:12:18;;;;;;;6.87;5.50;;;;;;;;;;5038591;28;20203;-69
2022/06/27 04:14:44;;;;;;;6.80;4.97;;;;;;;;;;5020268;28;20172;-69
2022/06/27 04:17:10;;;;;;;6.20;5.13;;;;;;;;;;5038186;28;20206;-70
2022/06/27 04:19:36;;;;;;;8.87;4.90;;;;;;;;;;5020163;28;20195;-70
2022/06/27 04:22:02;;;;;;;6.33;5.33;;;;;;;;;;5038042;28;20175;-68
2022/06/27 04:24:28;;;;;;;7.40;5.07;;;;;;;;;;5038657;28;20204;-69
2022/06/27 04:26:54;;;;;;;10.90;5.93;;;;;;;;;;5038693;28;20190;-69
2022/06/27 04:29:20;;;;;;;7.57;5.80;;;;;;;;;;5020490;28;20195;-69
2022/06/27 04:31:46;;;;;;;6.03;5.43;;;;;;;;;;5037846;28;20575;-69
2022/06/27 04:34:13;;;;;;;8.53;5.67;;;;;;;;;;5037714;28;20175;-69
2022/06/27 04:36:39;;;;;;;8.53;6.10;;;;;;;;;;5038042;28;20651;-70
2022/06/27 04:39:06;;;;;;;8.03;5.30;;;;;;;;;;5037541;28;20191;-69
2022/06/27 04:41:32;;;;;;;7.47;5.63;;;;;;;;;;5019942;28;20233;-70
2022/06/27 04:43:58;;;;;;;8.23;6.07;;;;;;;;;;5019564;28;20188;-69
2022/06/27 04:46:24;;;;;;;6.47;5.80;;;;;;;;;;5037684;28;20211;-71
2022/06/27 04:48:51;;;;;;;6.87;5.10;;;;;;;;;;5037102;28;20174;-68
2022/06/27 04:51:18;;;;;;;6.53;5.37;;;;;;;;;;5037360;28;20202;-69
2022/06/27 04:53:45;;;;;;;6.33;5.73;;;;;;;;;;5037358;28;20176;-69
2022/06/27 04:56:12;;;;;;;6.03;5.43;;;;;;;;;;5036534;28;20182;-68
2022/06/27 04:58:38;;;;;;;7.10;5.77;;;;;;;;;;5019322;28;20183;-68
2022/06/27 05:01:04;;;;;;;8.57;5.80;;;;;;;;;;5036637;28;20222;-68
2022/06/27 05:03:30;;;;;;;5.67;5.03;;;;;;;;;;5036989;28;20202;-68
2022/06/27 05:05:56;;;;;;;6.00;5.30;;;;;;;;;;5037314;28;20561;-68
2022/06/27 05:08:22;;;;;;;8.00;5.63;;;;;;;;;;5018496;28;20278;-69
2022/06/27 05:10:48;;;;;;;8.50;5.13;;;;;;;;;;5018979;28;20265;-68
2022/06/27 05:13:14;;;;;;;9.43;5.53;;;;;;;;;;5019634;28;20265;-69
2022/06/27 05:15:40;;;;;;;7.27;6.40;;;;;;;;;;5036670;28;20180;-68
2022/06/27 05:18:06;;;;;;;7.43;5.90;;;;;;;;;;5018169;28;20222;-68
2022/06/27 05:20:33;;;;;;;9.10;6.47;;;;;;;;;;5035806;28;20604;-69
2022/06/27 05:23:02;;;;;;;7.83;7.00;;;;;;;;;;5036235;28;20187;-70
2022/06/27 05:25:28;;;;;;;9.93;6.33;;;;;;;;;;5036188;28;20211;-69
2022/06/27 05:27:56;;;;;;;6.67;5.37;;;;;;;;;;5036409;28;20236;-68
2022/06/27 05:30:22;;;;;;;10.27;5.67;;;;;;;;;;5018249;28;20202;-68
2022/06/27 05:32:48;;;;;;;7.80;5.33;;;;;;;;;;5018191;28;20207;-67
2022/06/27 05:35:14;;;;;;;5.93;5.43;;;;;;;;;;5035930;28;20224;-67
2022/06/27 05:37:40;;;;;;;6.30;5.33;;;;;;;;;;5017835;28;20250;-68
2022/06/27 05:40:07;;;;;;;7.07;5.50;;;;;;;;;;5036100;28;20195;-68
2022/06/27 05:42:34;;;;;;;5.70;4.93;;;;;;;;;;5018759;28;20187;-68
2022/06/27 05:45:01;;;;;;;8.77;5.67;;;;;;;;;;5018712;28;20187;-68
2022/06/27 05:47:27;;;;;;;6.67;5.97;;;;;;;;;;5018494;28;20273;-67
2022/06/27 05:49:54;;;;;;;6.83;5.30;;;;;;;;;;5036677;28;20210;-68
2022/06/27 05:52:21;;;;;;;7.20;5.23;;;;;;;;;;5036350;28;20298;-68
2022/06/27 05:54:47;;;;;;;7.37;5.43;;;;;;;;;;5019257;28;20179;-68
2022/06/27 05:57:14;;;;;;;7.00;5.67;;;;;;;;;;5036538;28;20175;-68
2022/06/27 05:59:41;;;;;;;9.93;6.70;;;;;;;;;;5035904;28;20671;-68
2022/06/27 06:02:07;;;;;;;7.03;6.30;;;;;;;;;;5036390;28;20658;-68
2022/06/27 06:04:33;;;;;;;6.77;6.07;;;;;;;;;;5018337;28;20176;-68
2022/06/27 06:06:59;;;;;;;8.53;6.37;;;;;;;;;;5017719;28;20274;-68
2022/06/27 06:09:26;;;;;;;6.67;5.90;;;;;;;;;;5018550;28;20221;-68
2022/06/27 06:11:54;;;;;;;6.80;5.20;;;;;;;;;;5035717;28;20560;-70
2022/06/27 06:14:21;;;;;;;6.27;5.60;;;;;;;;;;5035796;28;20172;-68
2022/06/27 06:16:48;;;;;;;8.30;5.70;;;;;;;;;;5017995;28;20175;-68
2022/06/27 06:19:14;;;;;;;6.30;5.70;;;;;;;;;;5035825;28;20191;-70
2022/06/27 06:21:40;;;;;;;7.40;5.07;;;;;;;;;;5035562;28;20238;-68
2022/06/27 06:24:06;;;;;;;6.57;5.50;;;;;;;;;;5035386;28;20218;-68
2022/06/27 06:26:33;;;;;;;6.07;5.00;;;;;;;;;;5035224;28;20650;-68
2022/06/27 06:29:05;;;;;;;6.37;5.73;;;;;;;;;;5017822;28;20187;-68
2022/06/27 06:31:31;;;;;;;7.23;5.50;;;;;;;;;;5017766;28;20171;-68
2022/06/27 06:33:57;;;;;;;6.50;5.63;;;;;;;;;;5018124;28;20179;-68
2022/06/27 06:36:24;;;;;;;7.00;5.93;;;;;;;;;;5035714;28;20541;-68
2022/06/27 06:38:51;;;;;;;6.30;5.70;;;;;;;;;;5034720;28;20179;-68
2022/06/27 06:41:18;;;;;;;7.80;5.60;;;;;;;;;;5016861;28;20190;-68
2022/06/27 06:43:45;;;;;;;6.73;5.60;;;;;;;;;;5034503;28;20179;-68
2022/06/27 06:46:12;;;;;;;8.10;6.17;;;;;;;;;;5034202;28;20179;-68
2022/06/27 06:48:38;;;;;;;10.63;6.63;;;;;;;;;;5035178;28;20175;-67
2022/06/27 06:51:05;;;;;;;9.33;6.70;;;;;;;;;;5034047;28;20735;-68
2022/06/27 06:53:31;;;;;;;7.47;5.90;;;;;;;;;;5034009;28;20209;-68
2022/06/27 06:55:57;;;;;;;8.47;5.97;;;;;;;;;;5033745;28;20261;-68
2022/06/27 06:58:25;;;;;;;8.87;6.90;;;;;;;;;;5034265;28;20185;-68
2022/06/27 07:00:51;;;;;;;9.47;6.73;;;;;;;;;;5033985;28;20199;-68
2022/06/27 07:03:18;;;;;;;7.73;6.20;;;;;;;;;;5036458;28;20181;-68
2022/06/27 07:05:45;;;;;;;7.37;6.43;;;;;;;;;;5033423;28;20651;-67
2022/06/27 07:08:12;;;;;;;7.13;6.43;;;;;;;;;;5015557;28;20191;-68
2022/06/27 07:10:38;;;;;;;7.37;6.57;;;;;;;;;;5014956;28;20230;-68
2022/06/27 07:13:04;;;;;;;6.20;5.60;;;;;;;;;;5032978;28;20206;-68
2022/06/27 07:15:33;;;;;;;7.43;6.63;;;;;;;;;;5033712;28;20175;-68
2022/06/27 07:18:00;;;;;;;7.83;5.37;;;;;;;;;;5034299;28;20182;-69
2022/06/27 07:20:27;;;;;;;6.37;5.77;;;;;;;;;;5022101;28;20195;-69
2022/06/27 07:22:53;;;;;;;6.83;6.13;;;;;;;;;;5039955;28;20530;-68
2022/06/27 07:25:19;;;;;;;7.83;7.00;;;;;;;;;;5040110;28;20237;-68
2022/06/27 07:27:46;;;;;;;8.50;6.37;;;;;;;;;;5039740;28;20186;-68
2022/06/27 07:30:13;;;;;;;7.73;6.77;;;;;;;;;;5039850;28;20198;-68
2022/06/27 07:32:40;;;;;;;6.17;5.37;;;;;;;;;;5039800;28;20694;-69
2022/06/27 07:35:09;;;;;;;7.60;5.23;;;;;;;;;;5022128;28;20189;-69
2022/06/27 07:37:36;;;;;;;6.97;6.27;;;;;;;;;;5039820;28;20178;-68
2022/06/27 07:40:03;;;;;;;7.13;6.40;;;;;;;;;;5022181;28;20249;-69
2022/06/27 07:42:30;;;;;;;7.50;6.43;;;;;;;;;;5022234;28;20274;-68
2022/06/27 07:44:56;;;;;;;7.60;6.17;;;;;;;;;;5040810;28;20179;-67
2022/06/27 07:47:22;;;;;;;6.80;6.20;;;;;;;;;;5039914;28;20181;-67
2022/06/27 07:49:48;;;;;;;7.33;6.63;;;;;;;;;;5039800;28;20198;-68
2022/06/27 07:52:14;;;;;;;8.70;7.00;;;;;;;;;;5039941;28;20195;-68
2022/06/27 07:54:40;;;;;;;11.07;7.63;;;;;;;;;;5040334;28;20639;-68
2022/06/27 07:57:06;;;;;;;8.17;7.27;;;;;;;;;;5021856;28;20582;-67
2022/06/27 07:59:32;;;;;;;7.73;6.87;;;;;;;;;;5039894;28;20564;-67
2022/06/27 08:01:58;;;;;;;9.43;7.53;;;;;;;;;;5040064;28;20694;-67
2022/06/27 08:04:24;;;;;;;9.53;7.70;;;;;;;;;;5040045;28;20262;-68
2022/06/27 08:06:51;;;;;;;10.63;7.43;;;;;;;;;;5039583;28;20202;-68
2022/06/27 08:09:22;;;;;;;13.20;8.33;;;;;;;;;;5039731;28;20627;-69
2022/06/27 08:11:48;;;;;;;11.70;7.70;;;;;;;;;;5022139;28;20289;-69
2022/06/27 08:14:19;;;;;;;9.40;7.70;;;;;;;;;;5039842;28;20211;-71
2022/06/27 08:16:48;;;;;;;12.03;8.13;;;;;;;;;;5040099;28;20209;-69
2022/06/27 08:19:15;;;;;;;12.07;7.33;;;;;;;;;;5039741;28;20290;-70
2022/06/27 08:21:43;;;;;;;14.23;8.57;;;;;;;;;;5021902;28;20179;-69
2022/06/27 08:24:11;;;;;;;9.73;8.70;;;;;;;;;;5039709;28;20175;-70
2022/06/27 08:26:37;;;;;;;9.30;8.33;;;;;;;;;;5022100;28;20232;-70
2022/06/27 08:29:04;;;;;;;9.67;8.17;;;;;;;;;;5039733;28;20199;-70
2022/06/27 08:31:31;;;;;;;10.63;8.60;;;;;;;;;;5035197;28;20199;-69
2022/06/27 08:34:04;;;;;;;16.70;8.70;;;;;;;;;;5036429;28;20546;-69
2022/06/27 08:36:31;;;;;;;13.00;8.70;;;;;;;;;;5036709;28;20697;-69
2022/06/27 08:39:01;;;;;;;10.77;9.03;;;;;;;;;;5036409;28;20277;-67
2022/06/27 08:41:28;;;;;;;12.53;10.20;;;;;;;;;;5036939;28;20164;-68
2022/06/27 08:43:58;;;;;;;11.97;9.43;;;;;;;;;;5036454;28;20179;-68
2022/06/27 08:46:26;;;;;;;14.47;11.30;;;;;;;;;;5036243;28;20225;-67
2022/06/27 08:48:52;;;;;;;18.63;11.73;;;;;;;;;;5036006;28;20202;-68
2022/06/27 08:51:18;;;;;;;17.87;13.53;;;;;;;;;;5036221;28;20186;-68
2022/06/27 08:53:44;;;;;;;16.37;12.63;;;;;;;;;;5035634;28;20631;-68
2022/06/27 08:56:13;;;;;;;17.27;14.37;;;;;;;;;;5036190;28;20229;-68
2022/06/27 08:58:39;;;;;;;19.77;16.10;;;;;;;;;;5018126;28;20265;-68
2022/06/27 09:01:06;;;;;;;18.93;14.77;;;;;;;;;;5036191;28;20195;-68
2022/06/27 09:03:33;;;;;;;18.40;12.30;;;;;;;;;;5018290;28;20183;-69
2022/06/27 09:06:04;;;;;;;17.87;13.20;;;;;;;;;;5017990;28;20194;-68
2022/06/27 09:08:32;;;;;;;16.40;12.73;;;;;;;;;;5035898;28;20188;-69
2022/06/27 09:10:59;;;;;;;11.23;9.00;;;;;;;;;;5035696;28;20671;-69
2022/06/27 09:13:26;;;;;;;11.90;8.73;;;;;;;;;;5036067;28;20667;-69
2022/06/27 09:15:54;;;;;;;10.17;8.20;;;;;;;;;;5035821;28;20247;-69
2022/06/27 09:18:29;;;;;;;9.00;7.60;;;;;;;;;;5036476;28;20209;-70
2022/06/27 09:21:01;;;;;;;9.00;7.13;;;;;;;;;;5035502;28;20198;-69
2022/06/27 09:23:53;;;;;;;12.77;8.63;;;;;;;;;;5035940;28;20251;-69
2022/06/27 09:26:19;;;;;;;12.00;8.93;;;;;;;;;;5017775;28;20179;-69
2022/06/27 09:28:56;;;;;;;11.63;9.17;;;;;;;;;;5017966;28;20192;-68
2022/06/27 09:31:25;;;;;;;8.93;7.50;;;;;;;;;;5017908;28;20183;-70
2022/06/27 09:34:01;;;;;;;8.93;6.47;;;;;;;;;;5036013;28;20545;-68
2022/06/27 09:36:31;;;;;;;7.67;6.80;;;;;;;;;;5035674;28;20175;-68
2022/06/27 09:38:59;;;;;;;7.80;6.33;;;;;;;;;;5035275;28;20162;-69
2022/06/27 09:43:56;;;;;;;6.67;6.07;;;;;;;;;;5053909;28;20227;-69
2022/06/27 09:46:24;;;;;;;9.37;6.10;;;;;;;;;;5036967;28;20182;-68
2022/06/27 09:48:51;;;;;;;6.30;5.63;;;;;;;;;;5054565;28;20174;-68
2022/06/27 09:51:17;;;;;;;7.10;6.40;;;;;;;;;;5054760;28;20178;-68
2022/06/27 09:53:50;;;;;;;8.77;7.37;;;;;;;;;;5054315;28;20592;-69
2022/06/27 09:56:18;;;;;;;7.20;6.60;;;;;;;;;;5054419;28;20614;-68
2022/06/27 09:58:44;;;;;;;9.23;6.70;;;;;;;;;;5054498;28;20654;-68
2022/06/27 10:01:11;;;;;;;7.30;6.50;;;;;;;;;;5036579;28;20638;-68
2022/06/27 10:03:37;;;;;;;8.43;6.20;;;;;;;;;;5036374;28;20199;-68
2022/06/27 10:06:03;;;;;;;7.47;6.03;;;;;;;;;;5054275;28;20182;-67
2022/06/27 10:08:32;;;;;;;8.17;6.97;;;;;;;;;;5036330;28;20282;-69
2022/06/27 10:11:02;;;;;;;9.67;7.50;;;;;;;;;;5054170;28;20217;-69
2022/06/27 10:13:28;;;;;;;7.27;6.57;;;;;;;;;;5053987;28;20206;-68
2022/06/27 10:15:54;;;;;;;9.60;6.37;;;;;;;;;;5036178;28;20265;-68
2022/06/27 10:18:20;;;;;;;7.73;6.80;;;;;;;;;;5054052;28;20181;-68
2022/06/27 10:20:49;;;;;;;10.57;6.87;;;;;;;;;;5054300;28;20598;-68
2022/06/27 10:23:17;;;;;;;7.50;6.90;;;;;;;;;;5053882;28;20793;-68
2022/06/27 10:25:44;;;;;;;7.93;7.13;;;;;;;;;;5054321;28;20269;-68
2022/06/27 10:28:10;;;;;;;6.90;6.20;;;;;;;;;;5054125;28;20177;-68
2022/06/27 10:30:41;;;;;;;7.90;6.20;;;;;;;;;;5035912;28;20182;-69
2022/06/27 10:33:19;;;;;;;8.17;6.57;;;;;;;;;;5035748;28;20214;-68
2022/06/27 10:36:10;;;;;;;8.10;7.30;;;;;;;;;;5053651;28;20175;-68
2022/06/27 10:38:39;;;;;;;6.83;6.10;;;;;;;;;;5035785;28;20171;-68
2022/06/27 10:41:09;;;;;;;6.80;6.13;;;;;;;;;;5035754;28;20225;-68
2022/06/27 10:43:38;;;;;;;8.67;5.73;;;;;;;;;;5053408;28;20217;-68
2022/06/27 10:46:11;;;;;;;6.87;5.50;;;;;;;;;;5035678;28;20658;-67
2022/06/27 10:48:37;;;;;;;7.37;6.67;;;;;;;;;;5035526;28;20269;-68
2022/06/27 10:51:19;;;;;;;8.27;6.60;;;;;;;;;;5053981;28;20175;-69
2022/06/27 10:53:45;;;;;;;8.23;6.80;;;;;;;;;;5052642;28;20256;-68
2022/06/27 10:56:26;;;;;;;6.63;6.07;;;;;;;;;;5035635;28;20262;-68
2022/06/27 10:58:53;;;;;;;6.43;5.83;;;;;;;;;;5053894;28;20584;-67
2022/06/27 11:01:19;;;;;;;7.10;6.40;;;;;;;;;;5053180;28;20183;-67
2022/06/27 11:03:46;;;;;;;7.67;6.33;;;;;;;;;;5035360;28;20273;-68
2022/06/27 11:06:15;;;;;;;7.30;6.33;;;;;;;;;;5053555;28;20590;-68
2022/06/27 11:08:42;;;;;;;12.53;8.10;;;;;;;;;;5053264;28;20182;-68
2022/06/27 11:11:08;;;;;;;7.03;6.10;;;;;;;;;;5035324;28;20182;-68
2022/06/27 11:13:42;;;;;;;6.77;6.10;;;;;;;;;;5052948;28;20206;-68
2022/06/27 11:16:09;;;;;;;9.03;8.13;;;;;;;;;;5035362;28;20643;-68
2022/06/27 11:18:42;;;;;;;9.93;7.80;;;;;;;;;;5053352;28;20261;-68
2022/06/27 11:21:09;;;;;;;8.33;7.60;;;;;;;;;;5053476;28;20592;-68
2022/06/27 11:23:52;;;;;;;8.83;7.33;;;;;;;;;;5035203;28;20206;-68
2022/06/27 11:26:19;;;;;;;13.07;7.70;;;;;;;;;;5053066;28;20170;-68
2022/06/27 11:34:15;;;;;;;11.47;8.77;;;;;;;;;;5053391;28;20239;-67
2022/06/27 11:36:41;;;;;;;11.70;9.30;;;;;;;;;;5034952;28;20183;-68
2022/06/27 11:39:07;;;;;;;9.53;8.13;;;;;;;;;;5052899;28;20170;-67
2022/06/27 11:41:38;;;;;;;9.33;8.27;;;;;;;;;;5052765;28;20522;-67
2022/06/27 11:44:04;;;;;;;9.27;8.37;;;;;;;;;;5052895;28;20195;-67
2022/06/27 11:46:51;;;;;;;10.20;8.27;;;;;;;;;;5034881;28;20225;-67
2022/06/27 11:49:29;;;;;;;8.93;8.03;;;;;;;;;;5053165;28;20166;-67
2022/06/27 11:52:03;;;;;;;9.17;8.27;;;;;;;;;;5034485;28;20206;-67
2022/06/27 11:54:40;;;;;;;8.57;7.77;;;;;;;;;;5052757;28;20166;-68
2022/06/27 11:57:20;;;;;;;8.93;8.03;;;;;;;;;;5035187;28;20521;-67
2022/06/27 11:59:51;;;;;;;8.97;8.10;;;;;;;;;;5035083;28;20175;-68
2022/06/27 12:02:34;;;;;;;10.17;8.27;;;;;;;;;;5052684;28;20230;-67
2022/06/27 12:05:27;;;;;;;10.73;8.20;;;;;;;;;;5054629;28;20174;-67
2022/06/27 12:07:53;;;;;;;10.80;8.73;;;;;;;;;;5033786;28;20602;-67
2022/06/27 12:10:34;;;;;;;11.57;9.20;;;;;;;;;;5056407;28;20186;-67
2022/06/27 12:13:00;;;;;;;11.00;9.90;;;;;;;;;;5056251;28;20218;-67
2022/06/27 12:15:26;;;;;;;11.10;9.97;;;;;;;;;;5056630;28;20171;-67
2022/06/27 12:17:59;;;;;;;12.57;10.83;;;;;;;;;;5056422;28;20174;-67
2022/06/27 12:20:26;;;;;;;11.50;10.30;;;;;;;;;;5038404;28;20228;-67
2022/06/27 12:22:52;;;;;;;13.03;9.83;;;;;;;;;;5056208;28;20194;-68
2022/06/27 12:25:18;;;;;;;15.43;10.07;;;;;;;;;;5038485;28;20559;-67
2022/06/27 12:27:44;;;;;;;12.40;9.87;;;;;;;;;;5056243;28;20176;-67
2022/06/27 12:30:11;;;;;;;12.60;9.90;;;;;;;;;;5056312;28;20228;-68
2022/06/27 12:32:37;;;;;;;10.93;9.93;;;;;;;;;;5056464;28;20228;-66
2022/06/27 12:35:03;;;;;;;10.93;9.63;;;;;;;;;;5056351;28;20174;-69
2022/06/27 12:37:29;;;;;;;10.10;9.20;;;;;;;;;;5055794;28;20189;-68
2022/06/27 12:39:55;;;;;;;12.03;9.80;;;;;;;;;;5038182;28;20182;-68
2022/06/27 12:42:21;;;;;;;11.37;10.17;;;;;;;;;;5055829;28;20251;-67
2022/06/27 12:44:49;;;;;;;10.97;9.77;;;;;;;;;;5037989;28;20791;-68
2022/06/27 12:47:15;;;;;;;10.93;9.70;;;;;;;;;;5037957;28;20178;-66
2022/06/27 12:49:41;;;;;;;13.57;10.97;;;;;;;;;;5055692;28;20541;-67
2022/06/27 12:52:07;;;;;;;12.07;10.70;;;;;;;;;;5037694;28;20210;-68
2022/06/27 12:54:33;;;;;;;12.07;10.87;;;;;;;;;;5055852;28;20171;-66
2022/06/27 12:57:00;;;;;;;11.70;10.50;;;;;;;;;;5055711;28;20233;-64
2022/06/27 12:59:26;;;;;;;11.40;10.20;;;;;;;;;;5037888;28;20183;-64
2022/06/27 13:01:52;;;;;;;11.53;10.43;;;;;;;;;;5055425;28;20216;-65
2022/06/27 13:04:18;;;;;;;12.73;10.23;;;;;;;;;;5037746;28;20610;-65
2022/06/27 13:06:44;;;;;;;11.07;9.13;;;;;;;;;;5055482;28;20178;-65
2022/06/27 13:09:11;;;;;;;12.97;10.13;;;;;;;;;;5056043;28;20174;-65
2022/06/27 13:11:37;;;;;;;11.63;10.43;;;;;;;;;;5037390;28;20181;-65
2022/06/27 13:14:03;;;;;;;11.37;10.23;;;;;;;;;;5055405;28;20181;-65
2022/06/27 13:16:29;;;;;;;12.90;11.00;;;;;;;;;;5054281;28;20182;-65
2022/06/27 13:18:55;;;;;;;10.37;9.00;;;;;;;;;;5055728;28;20210;-65
2022/06/27 13:21:21;;;;;;;12.53;10.53;;;;;;;;;;5037304;28;20178;-63
2022/06/27 13:23:49;;;;;;;9.77;8.73;;;;;;;;;;5055350;28;20182;-65
2022/06/27 13:26:15;;;;;;;10.82;9.82;;;;;;;;;;5036010;28;20397;-65
2022/06/27 13:28:41;;;;;;;10.10;9.05;;;;;;;;;;5036149;28;20461;-64
2022/06/27 13:31:07;;;;;;;10.23;8.20;;;;;;;;;;5055402;28;20214;-65
2022/06/27 13:33:33;;;;;;;9.77;8.87;;;;;;;;;;5036820;28;20300;-65
2022/06/27 13:35:59;;;;;;;13.57;9.50;;;;;;;;;;5055274;28;20666;-65
2022/06/27 13:38:25;;;;;;;8.77;7.80;;;;;;;;;;5036916;28;20166;-65
2022/06/27 13:40:51;;;;;;;10.40;8.57;;;;;;;;;;5055536;28;20257;-65
2022/06/27 13:43:17;;;;;;;10.80;8.57;;;;;;;;;;5054537;28;20214;-65
2022/06/27 13:45:43;;;;;;;9.03;7.90;;;;;;;;;;5054819;28;20178;-65
2022/06/27 13:48:09;;;;;;;9.87;8.67;;;;;;;;;;5054957;28;20553;-66
2022/06/27 13:50:36;;;;;;;12.60;8.33;;;;;;;;;;5055312;28;20539;-65
2022/06/27 13:53:03;;;;;;;11.40;8.60;;;;;;;;;;5037886;28;20213;-66
2022/06/27 13:55:29;;;;;;;;;;;;;;;;;;5038188;28;20037;-65
2022/06/27 13:57:55;;;;;;;13.73;8.90;;;;;;;;;;5053498;28;20382;-65
2022/06/27 14:00:21;;;;;;;10.40;7.53;;;;;;;;;;5054797;28;20178;-65
2022/06/27 14:02:47;;;;;;;10.53;7.37;;;;;;;;;;5036577;28;20209;-66
2022/06/27 14:05:13;;;;;;;9.80;7.53;;;;;;;;;;5054955;28;20228;-66
2022/06/27 14:07:39;;;;;;;8.43;6.37;;;;;;;;;;5054300;28;20182;-66
2022/06/27 14:10:06;;;;;;;7.80;6.20;;;;;;;;;;5054483;28;20175;-65
2022/06/27 14:12:32;;;;;;;9.13;6.00;;;;;;;;;;5036142;28;20210;-65
2022/06/27 14:14:58;;;;;;;7.67;5.50;;;;;;;;;;5036240;28;20243;-65
2022/06/27 14:17:24;;;;;;;7.67;5.47;;;;;;;;;;5054050;28;20269;-65
2022/06/27 14:19:50;;;;;;;7.57;4.97;;;;;;;;;;5054392;28;20167;-65
2022/06/27 14:22:16;;;;;;;4.63;4.20;;;;;;;;;;5054058;28;20284;-65
2022/06/27 14:24:42;;;;;;;4.40;3.60;;;;;;;;;;5053961;28;20174;-65
2022/06/27 14:27:09;;;;;;;3.63;3.20;;;;;;;;;;5053953;28;20595;-65
2022/06/27 14:29:35;;;;;;;3.90;2.03;;;;;;;;;;5053260;28;20656;-65
2022/06/27 14:32:01;;;;;;;3.47;1.50;;;;;;;;;;5035814;28;20255;-66
2022/06/27 14:34:27;;;;;;;1.40;1.30;;;;;;;;;;5054483;28;20631;-65
2022/06/27 14:36:53;;;;;;;2.30;1.30;;;;;;;;;;5052623;28;20384;-65
2022/06/27 14:39:19;;;;;;;1.50;1.40;;;;;;;;;;5054199;28;20170;-65
2022/06/27 14:41:47;;;;;;;2.03;1.13;;;;;;;;;;5035529;28;20285;-64
2022/06/27 14:44:14;;;;;;;1.60;1.50;;;;;;;;;;5053767;28;20702;-65
2022/06/27 14:46:40;;;;;;;3.17;1.50;;;;;;;;;;5053748;28;20177;-66
2022/06/27 14:49:06;;;;;;;6.70;1.93;;;;;;;;;;5035759;28;20178;-68